Main page
METAR-TAF:

METAR-TAF

Airports :

Sindal Airport

Sindal, Denmark

latitude: 57-30N, longitude: 010-13E, elevation: 28 m

Current weather observation

The report was made 7 minutes ago, at 12:50 UTC
Wind 21 kt from the West/Southwest with gusts up to 31 kt
Temperature 7°C
Humidity 81%
Pressure 1006 hPa
Visibility 10 km or more
Scattered clouds at a height of 1900 ft
Broken clouds at a height of 12000 ft

METAR: EKSN 211250Z 24021G31KT 9999 SCT019 BKN120 07/04 Q1006

Time: 13:57 (12:57 UTC)

Forecast

The report was made 25 minutes ago, at 12:32 UTC
Forecast valid from 21 at 12 UTC to 21 at 14 UTC
Wind 25 kt from the West/Southwest
Visibility 10 km or more
Broken clouds at a height of 2000 ft
Temporary
from 21 at 12 UTC to 21 at 14 UTC
Wind 28 kt from the Southwest with gusts up to 42 kt

TAF: EKSN 211232Z 2112/2114 25025KT 9999 BKN020 TEMPO 2112/2114 23028G42KT

Weather observations and forecasts of more than 4000 airports (METAR and TAF reports).

The available stations are represented by yellow and red dots on the map.

Hover mouse over dot to see the name of the station.

Then click to see weather observations and forecasts.

To change the map : click on the green buttons with a black cross to zoom in, on the green button with a dash to zoom out, or on the green arrows for adjacent maps.


METAR-TAF: